8PN4 weather

Philipsburg Area Hospital Heliport
Philipsburg, Pennsylvania, United States

Public forecast

Using degrees Fahrenheit for public forecast. Weather courtesy of forecast.io.

METAR (pilot weather report)

Closest report is Clearfield Lawrence Airport, 12.7 nm (23.5 km) NW. Retrieved 2019/07/17 02:54 UTC (51 minutes ago):

KFIG 170254Z AUTO 20003KT 10SM -RA CLR 24/21 A3007 RMK AO2 RAB52 SLP170 P0000 60000 T02440211 53004

TAF (pilot weather forecast)

Forecast is more than 12 hours old.

Closest forecast is University Park Airport, 16.6 nm (30.8 km) ESE. Retrieved 2019/07/16 00:00 UTC (1 day ago):

TAF KUNV 162352Z 1700/1724 20005KT P6SM VCTS SCT040CB BKN100 FM170200 20004KT P6SM VCSH BKN100 FM170600 24003KT P6SM BKN100 FM171500 23011G17KT P6SM BKN030 BKN050 FM171800 23010G20KT 4SM SHRA VCTS BKN018 OVC040CB